createdAt,value
2022-09-03T00:01:51.525Z,100134.63
2022-09-03T00:04:46.529Z,100135.30
2022-09-03T00:07:57.576Z,100136.84
2022-09-03T00:11:05.650Z,100136.27
2022-09-03T00:13:39.393Z,100132.80
2022-09-03T00:16:12.542Z,100123.23
2022-09-03T00:18:54.180Z,100119.66
2022-09-03T00:21:36.890Z,100123.92
2022-09-03T00:24:14.107Z,100125.96
2022-09-03T00:26:51.513Z,100120.98
2022-09-03T00:29:30.851Z,100121.73
2022-09-03T00:32:06.751Z,100120.21
2022-09-03T00:34:43.151Z,100118.67
2022-09-03T00:37:14.350Z,100118.92
2022-09-03T00:39:43.827Z,100113.14
2022-09-03T00:42:47.598Z,100113.54
2022-09-03T00:45:20.662Z,100117.33
2022-09-03T00:48:01.840Z,100117.02
2022-09-03T00:50:50.494Z,100117.14
2022-09-03T00:53:34.033Z,100118.40
2022-09-03T00:56:15.845Z,100118.75
2022-09-03T00:59:06.630Z,100120.26
2022-09-03T01:01:45.801Z,100120.10
2022-09-03T01:04:25.286Z,100119.48
2022-09-03T01:07:21.654Z,100124.38
2022-09-03T01:10:27.030Z,100122.43
2022-09-03T01:13:19.750Z,100117.60
2022-09-03T01:16:43.495Z,100119.56
2022-09-03T01:19:52.131Z,100118.20
2022-09-03T01:22:57.009Z,100116.46
2022-09-03T01:26:16.630Z,100117.47
2022-09-03T01:28:59.968Z,100114.50
2022-09-03T01:31:42.166Z,100113.42
2022-09-03T01:34:49.185Z,100115.77
2022-09-03T01:37:46.713Z,100114.10
2022-09-03T01:40:38.029Z,100110.70
2022-09-03T01:43:50.747Z,100112.04
2022-09-03T01:46:25.951Z,100115.65
2022-09-03T01:49:12.063Z,100116.20
2022-09-03T01:51:41.061Z,100109.03
2022-09-03T01:54:36.922Z,100107.08
2022-09-03T01:57:06.802Z,100106.96
2022-09-03T02:00:13.072Z,100110.40
2022-09-03T02:02:46.099Z,100107.27
2022-09-03T02:05:17.704Z,100107.17
2022-09-03T02:07:54.515Z,100103.80
2022-09-03T02:10:54.850Z,100105.81
2022-09-03T02:13:31.617Z,100109.73
2022-09-03T02:16:07.914Z,100110.02
2022-09-03T02:18:45.681Z,100110.06
2022-09-03T02:21:19.898Z,100105.07
2022-09-03T02:23:48.966Z,100104.09
2022-09-03T02:26:22.045Z,100104.41
2022-09-03T02:28:51.349Z,100102.80
2022-09-03T02:31:18.950Z,100103.05
2022-09-03T02:33:48.930Z,100100.45
2022-09-03T02:36:21.358Z,100104.77
2022-09-03T02:38:48.657Z,100108.55
2022-09-03T02:41:15.807Z,100110.04
2022-09-03T02:44:03.231Z,100115.13
2022-09-03T02:46:57.545Z,100116.02
2022-09-03T02:49:25.077Z,100113.94
2022-09-03T02:52:05.982Z,100112.59
2022-09-03T02:54:35.962Z,100106.29
2022-09-03T02:57:03.641Z,100105.06
2022-09-03T02:59:31.842Z,100109.53
2022-09-03T03:02:01.206Z,100109.48
2022-09-03T03:04:30.695Z,100114.22
2022-09-03T03:06:58.060Z,100110.95
2022-09-03T03:09:25.824Z,100108.64
2022-09-03T03:11:54.873Z,100103.36
2022-09-03T03:14:22.542Z,100102.92
2022-09-03T03:16:51.217Z,100105.72
2022-09-03T03:19:19.077Z,100101.27
2022-09-03T03:21:46.276Z,100098.34
2022-09-03T03:24:14.341Z,100102.86
2022-09-03T03:26:41.839Z,100103.59
2022-09-03T03:29:15.597Z,100100.84
2022-09-03T03:31:43.584Z,100103.00
2022-09-03T03:34:10.836Z,100103.17
2022-09-03T03:36:38.349Z,100105.39
2022-09-03T03:39:05.440Z,100101.63
2022-09-03T03:41:35.560Z,100102.17
2022-09-03T03:44:06.694Z,100102.66
2022-09-03T03:46:37.865Z,100106.11
2022-09-03T03:49:06.561Z,100107.53
2022-09-03T03:51:35.729Z,100103.69
2022-09-03T03:54:05.182Z,100106.32
2022-09-03T03:56:34.421Z,100106.90
2022-09-03T03:59:01.982Z,100108.13
2022-09-03T04:01:30.153Z,100106.98
2022-09-03T04:03:59.958Z,100104.52
2022-09-03T04:06:28.237Z,100099.67
2022-09-03T04:08:55.607Z,100093.02
2022-09-03T04:11:25.311Z,100097.42
2022-09-03T04:13:53.799Z,100098.77
2022-09-03T04:16:24.556Z,100102.73
2022-09-03T04:18:54.033Z,100106.48
2022-09-03T04:21:23.770Z,100111.70
2022-09-03T04:23:52.535Z,100119.05
2022-09-03T04:26:24.327Z,100114.91
2022-09-03T04:28:51.953Z,100110.35
2022-09-03T04:31:21.042Z,100109.56
2022-09-03T04:33:48.308Z,100105.31
2022-09-03T04:36:21.996Z,100106.23
2022-09-03T04:38:53.753Z,100110.90
2022-09-03T04:41:27.254Z,100122.20
2022-09-03T04:43:57.434Z,100130.08
2022-09-03T04:46:32.924Z,100133.73
2022-09-03T04:49:00.848Z,100135.69
2022-09-03T04:51:31.931Z,100136.39
2022-09-03T04:54:01.632Z,100139.39
2022-09-03T04:56:34.574Z,100141.04
2022-09-03T04:59:05.925Z,100147.00
2022-09-03T05:01:35.348Z,100148.46
2022-09-03T05:04:03.136Z,100149.63
2022-09-03T05:06:32.283Z,100148.58
2022-09-03T05:09:00.342Z,100151.45
2022-09-03T05:11:29.306Z,100141.00
2022-09-03T05:13:59.011Z,100138.45
2022-09-03T05:16:28.692Z,100139.25
2022-09-03T05:18:59.454Z,100148.44
2022-09-03T05:21:28.341Z,100150.09
2022-09-03T05:23:55.799Z,100156.29
2022-09-03T05:26:29.904Z,100161.85
2022-09-03T05:29:01.089Z,100162.79
2022-09-03T05:31:31.340Z,100155.08
2022-09-03T05:34:01.604Z,100150.58
2022-09-03T05:36:35.432Z,100151.02
2022-09-03T05:39:05.117Z,100152.65
2022-09-03T05:41:33.801Z,100155.69
2022-09-03T05:44:01.869Z,100148.67
2022-09-03T05:46:33.689Z,100142.23
2022-09-03T05:49:03.380Z,100142.50
2022-09-03T05:51:31.396Z,100137.14
2022-09-03T05:53:59.191Z,100140.04
2022-09-03T05:56:30.632Z,100137.63
2022-09-03T05:59:01.339Z,100142.22
2022-09-03T06:01:35.828Z,100143.61
2022-09-03T06:04:10.287Z,100150.73
2022-09-03T06:06:40.724Z,100155.05
2022-09-03T06:09:14.222Z,100165.34
2022-09-03T06:11:42.608Z,100166.31
2022-09-03T06:14:13.162Z,100173.05
2022-09-03T06:16:48.477Z,100171.48
2022-09-03T06:19:16.547Z,100170.70
2022-09-03T06:21:45.172Z,100174.30
2022-09-03T06:24:16.683Z,100175.92
2022-09-03T06:26:44.710Z,100171.04
2022-09-03T06:29:12.610Z,100166.00
2022-09-03T06:31:40.168Z,100168.52
2022-09-03T06:34:08.037Z,100171.52
2022-09-03T06:36:35.649Z,100171.05
2022-09-03T06:39:03.670Z,100171.59
2022-09-03T06:41:33.555Z,100174.97
2022-09-03T06:44:05.347Z,100171.77
2022-09-03T06:46:38.437Z,100173.81
2022-09-03T06:49:05.916Z,100178.34
2022-09-03T06:51:33.387Z,100182.29
2022-09-03T06:54:04.397Z,100185.24
2022-09-03T06:56:38.826Z,100183.41
2022-09-03T06:59:13.839Z,100184.04
2022-09-03T07:01:44.838Z,100183.27
2022-09-03T07:04:20.432Z,100188.48
2022-09-03T07:06:48.113Z,100191.69
2022-09-03T07:09:17.742Z,100197.80
2022-09-03T07:11:46.652Z,100199.10
2022-09-03T07:14:15.705Z,100207.41
2022-09-03T07:16:43.447Z,100216.89
2022-09-03T07:19:12.875Z,100219.39
2022-09-03T07:21:48.840Z,100223.07
2022-09-03T07:24:19.441Z,100224.16
2022-09-03T07:26:48.331Z,100233.73
2022-09-03T07:29:16.186Z,100233.58
2022-09-03T07:31:43.982Z,100230.17
2022-09-03T07:34:13.582Z,100234.00
2022-09-03T07:36:46.896Z,100229.73
2022-09-03T07:39:17.644Z,100232.23
2022-09-03T07:41:46.021Z,100236.95
2022-09-03T07:44:15.697Z,100237.42
2022-09-03T07:46:45.075Z,100235.44
2022-09-03T07:49:12.573Z,100232.10
2022-09-03T07:51:40.242Z,100235.23
2022-09-03T07:54:10.609Z,100236.88
2022-09-03T07:56:39.823Z,100237.76
2022-09-03T07:59:07.513Z,100236.89
2022-09-03T08:01:36.019Z,100238.14
2022-09-03T08:04:05.959Z,100234.10
2022-09-03T08:06:39.088Z,100231.08
2022-09-03T08:09:09.548Z,100227.48
2022-09-03T08:11:40.260Z,100230.00
2022-09-03T08:14:10.978Z,100232.52
2022-09-03T08:16:49.288Z,100233.77
2022-09-03T08:19:18.554Z,100240.31
2022-09-03T08:21:46.184Z,100237.09
2022-09-03T08:24:16.600Z,100234.41
2022-09-03T08:26:50.403Z,100237.15
2022-09-03T08:29:20.280Z,100233.35
2022-09-03T08:31:48.519Z,100237.91
2022-09-03T08:34:17.108Z,100245.89
2022-09-03T08:36:46.458Z,100239.66
2022-09-03T08:39:13.491Z,100245.65
2022-09-03T08:42:40.033Z,100246.70
2022-09-03T08:45:15.852Z,100251.91
2022-09-03T08:48:21.680Z,100254.39
2022-09-03T08:50:59.533Z,100253.09
2022-09-03T08:53:45.827Z,100250.29
2022-09-03T08:56:33.032Z,100247.09
2022-09-03T08:59:01.489Z,100246.26
2022-09-03T09:01:57.448Z,100243.59
2022-09-03T09:04:57.184Z,100243.77
2022-09-03T09:08:04.585Z,100243.16
2022-09-03T09:11:08.192Z,100242.52
2022-09-03T09:14:28.418Z,100237.10
2022-09-03T09:17:23.289Z,100227.16
2022-09-03T09:20:02.913Z,100230.94
2022-09-03T09:22:38.230Z,100233.63
2022-09-03T09:25:22.388Z,100235.20
2022-09-03T09:28:03.675Z,100237.19
2022-09-03T09:30:32.565Z,100237.47
2022-09-03T09:33:00.286Z,100232.99
2022-09-03T09:35:27.786Z,100226.99
2022-09-03T09:37:59.933Z,100224.85
2022-09-03T09:40:44.616Z,100221.89
2022-09-03T09:43:20.262Z,100224.91
2022-09-03T09:45:53.289Z,100224.56
2022-09-03T09:48:33.827Z,100234.77
2022-09-03T09:51:12.387Z,100233.27
2022-09-03T09:53:42.032Z,100227.29
2022-09-03T09:56:21.202Z,100228.85
2022-09-03T09:58:48.760Z,100228.11
2022-09-03T10:01:25.307Z,100227.33
2022-09-03T10:03:59.392Z,100227.32
2022-09-03T10:06:49.820Z,100223.16
2022-09-03T10:09:23.103Z,100225.48
2022-09-03T10:12:35.413Z,100228.45
2022-09-03T10:15:27.470Z,100226.63
2022-09-03T10:18:08.207Z,100222.37
2022-09-03T10:21:04.855Z,100215.10
2022-09-03T10:24:15.350Z,100221.29
2022-09-03T10:26:46.563Z,100218.84
2022-09-03T10:29:29.191Z,100216.42
2022-09-03T10:32:01.185Z,100217.34
2022-09-03T10:34:38.657Z,100219.03
2022-09-03T10:37:43.151Z,100223.27
2022-09-03T10:40:36.776Z,100227.86
2022-09-03T10:43:31.061Z,100228.48
2022-09-03T10:46:24.329Z,100227.30
2022-09-03T10:49:04.356Z,100225.02
2022-09-03T10:51:45.127Z,100216.95
2022-09-03T10:54:54.381Z,100215.45
2022-09-03T10:57:54.458Z,100221.41
2022-09-03T11:00:22.753Z,100225.27
2022-09-03T11:03:26.485Z,100218.73
2022-09-03T11:06:09.964Z,100219.20
2022-09-03T11:08:54.056Z,100212.66
2022-09-03T11:11:32.527Z,100214.71
2022-09-03T11:14:13.288Z,100212.94
2022-09-03T11:16:54.738Z,100213.08
2022-09-03T11:19:34.737Z,100210.73
2022-09-03T11:22:04.945Z,100210.23
2022-09-03T11:24:34.994Z,100210.98
2022-09-03T11:27:16.178Z,100205.27
2022-09-03T11:30:03.370Z,100206.70
2022-09-03T11:33:00.145Z,100202.48
2022-09-03T11:35:33.721Z,100209.78
2022-09-03T11:38:08.525Z,100214.50
2022-09-03T11:40:38.772Z,100212.58
2022-09-03T11:43:26.996Z,100210.92
2022-09-03T11:46:33.799Z,100212.39
2022-09-03T11:49:13.310Z,100214.58
2022-09-03T11:51:44.571Z,100211.63
2022-09-03T11:54:20.427Z,100211.36
2022-09-03T11:56:50.084Z,100205.30
2022-09-03T11:59:20.255Z,100207.08
2022-09-03T12:02:09.406Z,100201.46
2022-09-03T12:05:25.137Z,100195.54
2022-09-03T12:07:59.961Z,100198.77
2022-09-03T12:10:33.027Z,100196.55
2022-09-03T12:13:32.947Z,100191.91
2022-09-03T12:16:17.740Z,100190.98
2022-09-03T12:18:47.600Z,100196.15
2022-09-03T12:21:16.923Z,100196.77
2022-09-03T12:23:45.911Z,100196.71
2022-09-03T12:26:27.148Z,100193.64
2022-09-03T12:29:00.328Z,100188.16
2022-09-03T12:31:31.120Z,100186.33
2022-09-03T12:34:02.394Z,100191.40
2022-09-03T12:36:43.160Z,100184.43
2022-09-03T12:40:04.859Z,100178.98
2022-09-03T12:42:28.258Z,100173.70
2022-09-03T12:44:55.986Z,100167.92
2022-09-03T12:47:39.610Z,100172.52
2022-09-03T12:50:24.270Z,100169.23
2022-09-03T12:53:02.833Z,100172.06
2022-09-03T12:55:41.008Z,100172.61
2022-09-03T12:58:24.444Z,100171.85
2022-09-03T13:01:04.409Z,100174.20
2022-09-03T13:03:43.008Z,100176.25
2022-09-03T13:06:15.153Z,100177.28
2022-09-03T13:09:18.977Z,100176.51
2022-09-03T13:11:46.149Z,100180.45
2022-09-03T13:14:17.083Z,100176.59
2022-09-03T13:16:44.140Z,100177.85
2022-09-03T13:19:48.262Z,100179.91
2022-09-03T13:23:04.735Z,100179.42
2022-09-03T13:26:07.603Z,100176.58
2022-09-03T13:29:03.239Z,100175.02
2022-09-03T13:31:55.108Z,100178.22
2022-09-03T13:34:47.923Z,100176.25
2022-09-03T13:38:08.598Z,100177.93
2022-09-03T13:40:58.297Z,100175.07
2022-09-03T13:43:42.173Z,100175.89
2022-09-03T13:46:20.617Z,100171.05
2022-09-03T13:49:08.191Z,100168.81
2022-09-03T13:51:56.569Z,100173.33
2022-09-03T13:54:48.524Z,100166.47
2022-09-03T13:57:42.244Z,100171.19
2022-09-03T14:00:13.929Z,100175.02
2022-09-03T14:03:06.554Z,100178.02
2022-09-03T14:05:51.718Z,100175.29
2022-09-03T14:08:35.340Z,100177.00
2022-09-03T14:11:18.170Z,100179.07
2022-09-03T14:14:20.153Z,100180.88
2022-09-03T14:16:57.607Z,100178.98
2022-09-03T14:19:57.649Z,100177.08
2022-09-03T14:22:44.921Z,100174.27
2022-09-03T14:25:18.164Z,100178.98
2022-09-03T14:27:45.547Z,100182.12
2022-09-03T14:30:33.174Z,100180.88
2022-09-03T14:33:36.364Z,100181.04
2022-09-03T14:36:17.307Z,100180.70
2022-09-03T14:38:47.639Z,100185.90
2022-09-03T14:41:43.965Z,100183.60
2022-09-03T14:44:58.007Z,100185.25
2022-09-03T14:47:28.244Z,100183.44
2022-09-03T14:50:19.912Z,100178.48
2022-09-03T14:52:56.867Z,100182.92
2022-09-03T14:55:58.654Z,100181.65
2022-09-03T14:59:00.866Z,100182.91
2022-09-03T15:01:38.601Z,100180.20
2022-09-03T15:04:52.550Z,100178.97
2022-09-03T15:07:48.371Z,100174.27
2022-09-03T15:11:06.693Z,100177.02
2022-09-03T15:13:45.543Z,100172.45
2022-09-03T15:16:50.731Z,100173.88
2022-09-03T15:20:10.844Z,100175.66
2022-09-03T15:22:58.157Z,100177.64
2022-09-03T15:25:58.914Z,100179.03
2022-09-03T15:28:56.775Z,100178.88
2022-09-03T15:31:47.578Z,100178.19
2022-09-03T15:34:51.180Z,100176.42
2022-09-03T15:37:36.273Z,100173.55
2022-09-03T15:40:17.772Z,100173.38
2022-09-03T15:42:48.374Z,100177.23
2022-09-03T15:45:50.775Z,100180.46
2022-09-03T15:48:32.818Z,100183.61
2022-09-03T15:51:25.183Z,100174.61
2022-09-03T15:54:17.208Z,100171.71
2022-09-03T15:57:42.514Z,100172.46
2022-09-03T16:00:21.526Z,100173.80
2022-09-03T16:03:10.463Z,100172.02
2022-09-03T16:05:50.570Z,100170.52
2022-09-03T16:08:44.681Z,100169.91
2022-09-03T16:11:27.054Z,100172.34
2022-09-03T16:14:12.537Z,100173.33
2022-09-03T16:17:09.377Z,100169.02
2022-09-03T16:20:23.879Z,100165.83
2022-09-03T16:23:17.124Z,100167.64
2022-09-03T16:26:05.792Z,100171.74
2022-09-03T16:28:50.036Z,100171.16
2022-09-03T16:31:45.351Z,100178.57
2022-09-03T16:34:45.944Z,100180.10
2022-09-03T16:37:22.117Z,100179.47
2022-09-03T16:39:58.123Z,100178.31
2022-09-03T16:42:44.163Z,100182.90
2022-09-03T16:45:58.892Z,100178.88
2022-09-03T16:49:38.326Z,100183.01
2022-09-03T16:52:47.697Z,100182.65
2022-09-03T16:55:36.573Z,100184.26
2022-09-03T16:58:29.659Z,100189.83
2022-09-03T17:01:35.273Z,100195.20
2022-09-03T17:04:41.281Z,100202.61
2022-09-03T17:07:41.669Z,100208.10
2022-09-03T17:10:26.644Z,100204.16
2022-09-03T17:13:27.478Z,100208.13
2022-09-03T17:16:37.983Z,100213.35
2022-09-03T17:19:28.505Z,100218.88
2022-09-03T17:22:23.141Z,100223.59
2022-09-03T17:25:07.830Z,100224.55
2022-09-03T17:28:00.101Z,100223.02
2022-09-03T17:31:12.414Z,100225.64
2022-09-03T17:34:10.609Z,100230.94
2022-09-03T17:36:40.274Z,100236.52
2022-09-03T17:39:45.566Z,100242.85
2022-09-03T17:42:29.274Z,100244.81
2022-09-03T17:45:09.876Z,100240.10
2022-09-03T17:48:24.346Z,100237.80
2022-09-03T17:51:06.432Z,100243.36
2022-09-03T17:53:51.518Z,100245.70
2022-09-03T17:56:33.193Z,100248.05
2022-09-03T17:59:29.281Z,100248.11
2022-09-03T18:02:18.902Z,100239.58
2022-09-03T18:05:07.545Z,100245.44
2022-09-03T18:08:09.337Z,100245.94
2022-09-03T18:10:53.250Z,100245.13
2022-09-03T18:14:05.056Z,100245.13
2022-09-03T18:16:45.516Z,100245.41
2022-09-03T18:19:51.881Z,100246.23
2022-09-03T18:22:44.625Z,100239.29
2022-09-03T18:25:32.373Z,100249.89
2022-09-03T18:28:30.642Z,100253.36
2022-09-03T18:31:16.249Z,100244.89
2022-09-03T18:34:01.807Z,100244.40
2022-09-03T18:36:50.868Z,100246.77
2022-09-03T18:39:46.953Z,100244.66
2022-09-03T18:42:47.225Z,100242.77
2022-09-03T18:47:00.022Z,100241.80
2022-09-03T18:49:41.944Z,100248.13
2022-09-03T18:53:01.100Z,100249.24
2022-09-03T18:56:01.700Z,100247.14
2022-09-03T18:59:32.420Z,100244.08
2022-09-03T19:02:32.301Z,100249.52
2022-09-03T19:05:52.393Z,100249.51
2022-09-03T19:08:50.522Z,100251.95
2022-09-03T19:12:08.413Z,100248.54
2022-09-03T19:15:35.913Z,100254.27
2022-09-03T19:18:38.580Z,100258.75
2022-09-03T19:22:09.397Z,100267.01
2022-09-03T19:24:54.762Z,100271.14
2022-09-03T19:28:33.430Z,100270.77
2022-09-03T19:31:35.398Z,100269.34
2022-09-03T19:35:08.562Z,100267.74
2022-09-03T19:38:28.395Z,100270.86
2022-09-03T19:41:35.381Z,100279.14
2022-09-03T19:44:29.819Z,100282.15
2022-09-03T19:47:19.141Z,100289.84
2022-09-03T19:50:43.099Z,100293.48
2022-09-03T19:53:33.361Z,100295.30
2022-09-03T19:56:32.941Z,100297.73
2022-09-03T19:59:21.650Z,100296.66
2022-09-03T20:02:09.055Z,100295.11
2022-09-03T20:05:04.462Z,100294.46
2022-09-03T20:07:53.104Z,100299.09
2022-09-03T20:10:23.598Z,100293.46
2022-09-03T20:13:09.217Z,100293.02
2022-09-03T20:15:55.206Z,100293.48
2022-09-03T20:18:50.931Z,100292.83
2022-09-03T20:21:38.982Z,100297.14
2022-09-03T20:24:24.120Z,100294.52
2022-09-03T20:27:12.466Z,100298.95
2022-09-03T20:30:10.302Z,100298.77
2022-09-03T20:32:55.787Z,100300.81
2022-09-03T20:36:10.028Z,100301.34
2022-09-03T20:39:00.209Z,100305.64
2022-09-03T20:42:12.034Z,100304.85
2022-09-03T20:45:15.276Z,100305.77
2022-09-03T20:48:06.623Z,100304.09
2022-09-03T20:50:44.380Z,100306.27
2022-09-03T20:53:14.102Z,100315.40
2022-09-03T20:55:48.823Z,100316.07
2022-09-03T20:58:37.267Z,100316.20
2022-09-03T21:01:09.039Z,100318.40
2022-09-03T21:03:49.703Z,100317.40
2022-09-03T21:06:53.461Z,100322.41
2022-09-03T21:09:53.276Z,100318.89
2022-09-03T21:12:42.481Z,100321.12
2022-09-03T21:15:12.770Z,100325.26
2022-09-03T21:18:14.781Z,100327.20
2022-09-03T21:20:57.189Z,100330.27
2022-09-03T21:23:42.757Z,100333.39
2022-09-03T21:26:28.233Z,100335.77
2022-09-03T21:29:22.411Z,100336.62
2022-09-03T21:32:07.913Z,100337.58
2022-09-03T21:34:48.687Z,100338.85
2022-09-03T21:37:16.029Z,100341.70
2022-09-03T21:39:51.528Z,100345.63
2022-09-03T21:42:43.594Z,100345.16
2022-09-03T21:45:42.855Z,100339.54
2022-09-03T21:48:15.894Z,100346.16
2022-09-03T21:51:14.784Z,100340.95
2022-09-03T21:54:06.346Z,100343.56
2022-09-03T21:57:09.254Z,100344.73
2022-09-03T21:59:56.626Z,100347.54
2022-09-03T22:02:29.584Z,100345.58
2022-09-03T22:04:57.917Z,100341.03
2022-09-03T22:07:46.369Z,100343.30
2022-09-03T22:10:38.261Z,100338.79
2022-09-03T22:13:35.425Z,100337.71
2022-09-03T22:16:23.293Z,100334.61
2022-09-03T22:18:50.440Z,100333.23
2022-09-03T22:21:38.555Z,100331.48
2022-09-03T22:24:37.031Z,100332.59
2022-09-03T22:27:25.887Z,100326.63
2022-09-03T22:30:06.459Z,100334.77
2022-09-03T22:33:04.736Z,100336.00
2022-09-03T22:36:11.519Z,100336.48
2022-09-03T22:39:04.725Z,100332.83
2022-09-03T22:41:53.015Z,100330.65
2022-09-03T22:45:04.202Z,100334.14
2022-09-03T22:47:43.643Z,100334.81
2022-09-03T22:50:43.967Z,100331.87
2022-09-03T22:53:41.223Z,100333.13
2022-09-03T22:56:14.823Z,100334.05
2022-09-03T22:59:19.008Z,100334.73
2022-09-03T23:01:58.611Z,100335.05
2022-09-03T23:04:47.333Z,100334.08
2022-09-03T23:07:55.035Z,100332.23
2022-09-03T23:10:53.141Z,100331.42
2022-09-03T23:13:33.467Z,100333.35
2022-09-03T23:16:55.664Z,100329.45
2022-09-03T23:19:40.478Z,100332.42
2022-09-03T23:22:38.435Z,100333.54
2022-09-03T23:25:21.349Z,100331.17
2022-09-03T23:28:02.425Z,100328.63
2022-09-03T23:30:29.629Z,100332.08
2022-09-03T23:32:59.326Z,100331.98
2022-09-03T23:35:29.727Z,100324.05
2022-09-03T23:37:56.877Z,100328.96
2022-09-03T23:40:44.781Z,100330.69
2022-09-03T23:43:55.204Z,100329.69
2022-09-03T23:46:32.464Z,100334.13
2022-09-03T23:49:34.223Z,100338.30
2022-09-03T23:52:21.444Z,100335.38
2022-09-03T23:54:58.526Z,100341.45
2022-09-03T23:57:49.729Z,100345.04
